Time;durP1;ratioP1;P1;durP2;ratioP2;P2;SDS_P1;SDS_P2;PMS_P1;PMS_P2;Temp;Humidity;BMP_temperature;BMP_pressure;BME280_temperature;BME280_humidity;BME280_pressure;Samples;Min_cycle;Max_cycle;Signal;HPM_P1;HPM_P2
2021/12/19 00:02:26;;;;;;;69.85;25.98;;;;;;;2.14;100.00;102268.97;5097607;28;20052;-51
2021/12/19 00:10:28;;;;;;;76.95;25.42;;;;;;;2.15;100.00;102261.13;5096259;28;20508;-51
2021/12/19 00:12:57;;;;;;;61.63;25.13;;;;;;;2.23;100.00;102259.34;5096726;28;20530;-51
2021/12/19 00:15:25;;;;;;;70.85;26.63;;;;;;;2.25;100.00;102245.41;5096006;28;20507;-50
2021/12/19 00:17:53;;;;;;;70.72;25.83;;;;;;;2.22;100.00;102244.53;5097237;28;20059;-51
2021/12/19 00:20:23;;;;;;;61.00;24.40;;;;;;;2.20;100.00;102248.91;5096591;28;20063;-51
2021/12/19 00:23:12;;;;;;;85.72;27.73;;;;;;;2.18;100.00;102234.06;5097334;28;20066;-51
2021/12/19 00:25:40;;;;;;;66.35;26.00;;;;;;;2.28;100.00;102241.03;5096183;28;20067;-51
2021/12/19 00:28:09;;;;;;;71.93;25.75;;;;;;;2.30;100.00;102234.03;5096445;28;20056;-51
2021/12/19 00:30:37;;;;;;;73.53;26.05;;;;;;;2.33;100.00;102234.03;5096364;28;20392;-51
2021/12/19 00:33:05;;;;;;;68.65;23.95;;;;;;;2.37;100.00;102234.91;5096324;28;20060;-51
2021/12/19 00:35:35;;;;;;;65.50;23.95;;;;;;;2.39;100.00;102233.19;5095959;28;20109;-51
2021/12/19 00:38:03;;;;;;;77.60;24.25;;;;;;;2.36;100.00;102233.19;5096241;28;20052;-51
2021/12/19 00:40:32;;;;;;;67.50;25.90;;;;;;;2.39;100.00;102233.19;5096437;28;20059;-51
2021/12/19 00:43:05;;;;;;;72.15;26.77;;;;;;;2.39;100.00;102235.81;5096429;28;20056;-50
2021/12/19 00:45:36;;;;;;;78.63;27.65;;;;;;;2.39;100.00;102228.81;5095834;28;20554;-51
2021/12/19 00:48:08;;;;;;;65.40;24.83;;;;;;;2.35;100.00;102231.44;5095809;28;20071;-51
2021/12/19 00:50:38;;;;;;;72.00;24.02;;;;;;;2.28;100.00;102222.69;5096616;28;20056;-51
2021/12/19 00:53:06;;;;;;;79.82;25.58;;;;;;;2.25;100.00;102224.44;5096802;28;20064;-51
2021/12/19 00:55:35;;;;;;;71.88;25.25;;;;;;;2.16;100.00;102214.84;5095276;28;20060;-50
2021/12/19 00:58:04;;;;;;;68.82;24.52;;;;;;;2.15;100.00;102219.22;5095339;28;20068;-52
2021/12/19 01:00:35;;;;;;;67.53;25.60;;;;;;;2.22;100.00;102210.50;5096672;28;20060;-51
2021/12/19 01:03:04;;;;;;;77.45;25.90;;;;;;;2.21;100.00;102205.25;5095159;28;20436;-51
2021/12/19 01:05:38;;;;;;;69.30;26.42;;;;;;;2.18;100.00;102216.59;5096311;28;20106;-50
2021/12/19 01:08:08;;;;;;;73.00;24.63;;;;;;;2.15;100.00;102203.53;5095109;28;20052;-51
2021/12/19 01:10:37;;;;;;;77.22;24.60;;;;;;;2.11;100.00;102207.00;5095594;28;20064;-51
2021/12/19 01:13:05;;;;;;;70.60;25.67;;;;;;;2.07;100.00;102192.16;5096384;28;20066;-51
2021/12/19 01:15:34;;;;;;;78.35;26.70;;;;;;;2.13;100.00;102200.00;5094925;28;20052;-51
2021/12/19 01:18:02;;;;;;;75.60;25.75;;;;;;;2.10;100.00;102194.78;5095159;28;20056;-51
2021/12/19 01:20:32;;;;;;;73.15;24.90;;;;;;;2.12;100.00;102198.28;5096276;28;20091;-51
2021/12/19 01:23:01;;;;;;;80.63;27.45;;;;;;;2.11;100.00;102196.53;5095391;28;20066;-51
2021/12/19 01:25:31;;;;;;;83.40;27.00;;;;;;;2.09;100.00;102198.28;5095700;28;20056;-51
2021/12/19 01:27:59;;;;;;;78.32;25.67;;;;;;;2.02;100.00;102196.53;5094043;28;20056;-51
2021/12/19 01:30:27;;;;;;;81.30;25.50;;;;;;;2.00;100.00;102199.16;5095247;28;20083;-51
2021/12/19 01:32:55;;;;;;;65.28;25.05;;;;;;;2.01;100.00;102205.25;5094908;28;20060;-51
2021/12/19 01:35:24;;;;;;;78.40;25.10;;;;;;;2.05;100.00;102191.28;5094661;28;20560;-50
2021/12/19 01:37:53;;;;;;;89.07;27.75;;;;;;;2.10;100.00;102192.19;5095002;28;20064;-51
2021/12/19 01:40:23;;;;;;;88.57;28.52;;;;;;;2.06;100.00;102187.81;5095033;28;20070;-51
2021/12/19 01:42:55;;;;;;;92.85;27.35;;;;;;;2.00;100.00;102182.56;5094717;28;20071;-51
2021/12/19 01:45:25;;;;;;;79.28;25.08;;;;;;;1.98;100.00;102195.63;5095916;28;20056;-51
2021/12/19 01:47:54;;;;;;;80.57;26.73;;;;;;;1.95;100.00;102193.03;5095850;28;20074;-51
2021/12/19 01:50:22;;;;;;;77.70;24.73;;;;;;;1.98;100.00;102184.31;5094993;28;20052;-51
2021/12/19 01:52:51;;;;;;;69.15;24.83;;;;;;;1.98;100.00;102189.53;5095458;28;20056;-51
2021/12/19 01:55:20;;;;;;;85.70;27.20;;;;;;;2.00;100.00;102193.03;5094269;28;20051;-51
2021/12/19 01:57:48;;;;;;;76.88;26.40;;;;;;;2.02;100.00;102197.41;5094687;28;20067;-51
2021/12/19 02:00:22;;;;;;;83.20;26.67;;;;;;;2.00;100.00;102182.56;5095585;28;20162;-51
2021/12/19 02:02:51;;;;;;;100.50;27.75;;;;;;;1.99;100.00;102183.44;5095093;28;20052;-51
2021/12/19 02:05:19;;;;;;;79.65;26.10;;;;;;;1.97;100.00;102182.56;5094157;28;20059;-51
2021/12/19 02:07:48;;;;;;;71.85;25.15;;;;;;;1.93;100.00;102181.69;5094666;28;20142;-51
2021/12/19 02:10:19;;;;;;;85.07;26.95;;;;;;;1.92;100.00;102179.94;5094672;28;20060;-51
2021/12/19 02:12:48;;;;;;;104.88;28.65;;;;;;;1.93;100.00;102176.44;5095403;28;20139;-51
2021/12/19 02:15:19;;;;;;;97.65;27.23;;;;;;;1.90;100.00;102186.03;5095460;28;20056;-51
2021/12/19 02:17:50;;;;;;;91.22;26.15;;;;;;;1.82;100.00;102189.53;5094291;28;20055;-51
2021/12/19 02:20:21;;;;;;;73.68;25.08;;;;;;;1.81;100.00;102185.16;5095330;28;20083;-51
2021/12/19 02:22:49;;;;;;;89.45;28.42;;;;;;;1.80;100.00;102186.06;5095910;28;20060;-51
2021/12/19 02:25:17;;;;;;;86.78;25.55;;;;;;;1.82;100.00;102183.44;5095382;28;20063;-51
2021/12/19 02:27:46;;;;;;;70.63;24.80;;;;;;;1.80;100.00;102183.44;5094412;28;20056;-50
2021/12/19 02:30:14;;;;;;;80.25;25.77;;;;;;;1.80;100.00;102188.66;5095259;28;20052;-51
2021/12/19 02:32:43;;;;;;;77.30;25.48;;;;;;;1.82;100.00;102184.31;5094700;28;20056;-51
2021/12/19 02:35:17;;;;;;;80.10;27.08;;;;;;;1.82;100.00;102179.06;5094721;28;20056;-50
2021/12/19 02:48:08;;;;;;;94.45;25.20;;;;;;;1.82;100.00;102178.19;5085364;28;20056;-51
2021/12/19 02:48:56;;;;;;;91.55;27.63;;;;;;;2.04;100.00;102176.47;5099214;28;20063;-51
2021/12/19 02:51:30;;;;;;;112.65;31.23;;;;;;;2.07;100.00;102176.47;5098325;28;20052;-50
2021/12/19 02:54:00;;;;;;;111.05;29.13;;;;;;;2.06;100.00;102177.31;5097729;28;20052;-51
2021/12/19 02:56:29;;;;;;;98.43;26.63;;;;;;;2.04;100.00;102168.59;5097861;28;20511;-51
2021/12/19 02:58:57;;;;;;;112.60;27.70;;;;;;;1.98;100.00;102173.84;5098006;28;20068;-51
2021/12/19 03:01:26;;;;;;;99.32;26.20;;;;;;;1.92;100.00;102169.47;5098102;28;20063;-51
2021/12/19 03:03:55;;;;;;;86.78;26.45;;;;;;;1.91;100.00;102172.09;5098997;28;20052;-51
2021/12/19 03:06:24;;;;;;;82.82;25.88;;;;;;;1.86;100.00;102165.09;5098247;28;20064;-50
2021/12/19 03:08:53;;;;;;;98.53;27.30;;;;;;;1.83;100.00;102174.69;5097996;28;20491;-51
2021/12/19 03:19:39;;;;;;;84.85;27.52;;;;;;;1.85;100.00;102158.13;5098626;28;20147;-51
2021/12/19 03:22:07;;;;;;;98.25;29.27;;;;;;;1.77;100.00;102159.00;5098026;28;20060;-51
2021/12/19 03:24:36;;;;;;;73.68;24.30;;;;;;;1.73;100.00;102152.91;5097157;28;20071;-51
2021/12/19 03:27:05;;;;;;;89.43;26.70;;;;;;;1.65;100.00;102152.03;5097630;28;20063;-51
2021/12/19 03:29:34;;;;;;;109.28;27.55;;;;;;;1.62;100.00;102154.63;5097541;28;20063;-51
2021/12/19 03:32:02;;;;;;;82.35;25.58;;;;;;;1.56;100.00;102149.38;5098093;28;20052;-51
2021/12/19 03:34:32;;;;;;;83.10;23.85;;;;;;;1.56;100.00;102144.16;5097589;28;20052;-50
2021/12/19 03:37:00;;;;;;;82.60;23.70;;;;;;;1.59;100.00;102134.56;5098006;28;20083;-51
2021/12/19 03:39:36;;;;;;;101.05;28.05;;;;;;;1.61;100.00;102137.19;5097661;28;20052;-51
2021/12/19 03:42:07;;;;;;;88.03;23.45;;;;;;;1.60;100.00;102138.06;5097767;28;20056;-51
2021/12/19 03:44:35;;;;;;;102.10;28.13;;;;;;;1.60;100.00;102130.22;5097094;28;20051;-51
2021/12/19 03:47:03;;;;;;;98.70;25.90;;;;;;;1.57;100.00;102128.47;5097517;28;20056;-51
2021/12/19 03:49:32;;;;;;;78.95;25.30;;;;;;;1.57;100.00;102114.50;5097113;28;20085;-51
2021/12/19 03:52:00;;;;;;;81.95;26.48;;;;;;;1.59;100.00;102126.72;5096119;28;20056;-52
2021/12/19 03:54:28;;;;;;;85.22;24.35;;;;;;;1.55;100.00;102119.75;5096583;28;20067;-52
2021/12/19 03:56:56;;;;;;;79.95;24.45;;;;;;;1.55;100.00;102118.88;5097262;28;20098;-51
2021/12/19 03:59:27;;;;;;;85.78;26.70;;;;;;;1.59;100.00;102121.47;5096661;28;20052;-51
2021/12/19 04:01:55;;;;;;;80.53;25.03;;;;;;;1.60;100.00;102120.63;5096457;28;20064;-51
2021/12/19 04:04:24;;;;;;;97.55;25.95;;;;;;;1.67;100.00;102113.66;5096722;28;20056;-51
2021/12/19 04:06:52;;;;;;;91.32;25.33;;;;;;;1.59;100.00;102112.75;5096548;28;20052;-51
2021/12/19 04:09:20;;;;;;;97.15;24.85;;;;;;;1.53;100.00;102118.88;5096845;28;20052;-51
2021/12/19 04:11:50;;;;;;;86.55;25.83;;;;;;;1.47;100.00;102108.41;5097412;28;20063;-51
2021/12/19 04:14:18;;;;;;;85.90;25.40;;;;;;;1.51;100.00;102101.41;5096531;28;20056;-51
2021/12/19 04:16:48;;;;;;;79.38;24.17;;;;;;;1.44;100.00;102109.25;5096719;28;20056;-51
2021/12/19 04:19:16;;;;;;;78.10;24.17;;;;;;;1.40;100.00;102110.13;5096279;28;20067;-50
2021/12/19 04:21:44;;;;;;;89.00;25.13;;;;;;;1.39;100.00;102105.75;5096577;28;20056;-51
2021/12/19 04:24:12;;;;;;;92.53;26.20;;;;;;;1.40;100.00;102109.28;5096866;28;20134;-51
2021/12/19 04:26:40;;;;;;;80.53;24.58;;;;;;;1.37;100.00;102114.50;5096190;28;20056;-51
2021/12/19 04:29:09;;;;;;;85.82;27.25;;;;;;;1.45;100.00;102116.25;5096096;28;20056;-51
2021/12/19 04:31:38;;;;;;;91.00;25.83;;;;;;;1.46;100.00;102112.75;5096388;28;20052;-51
2021/12/19 04:34:08;;;;;;;99.68;25.83;;;;;;;1.46;100.00;102107.53;5095797;28;20052;-51
2021/12/19 04:36:40;;;;;;;92.43;26.13;;;;;;;1.44;100.00;102104.03;5095745;28;20522;-51
2021/12/19 04:39:29;;;;;;;104.45;28.42;;;;;;;1.44;100.00;102092.69;5097055;28;20067;-51
2021/12/19 04:53:21;;;;;;;116.70;30.35;;;;;;;1.33;100.00;102074.41;5132201;28;20066;-52
2021/12/19 04:56:21;;;;;;;92.90;27.15;;;;;;;1.33;100.00;102074.41;5132464;28;20518;-52
2021/12/19 05:15:37;;;;;;;123.70;30.23;;;;;;;1.38;100.00;102067.41;5131933;28;20063;-51
2021/12/19 05:18:09;;;;;;;117.47;30.77;;;;;;;1.36;100.00;102074.41;5132734;28;20055;-51
2021/12/19 05:20:39;;;;;;;;;;;;;;;1.36;100.00;102079.63;5132955;28;20140;-51
2021/12/19 05:23:17;;;;;;;124.28;27.90;;;;;;;1.36;100.00;102089.19;5132951;28;19920;-51
2021/12/19 05:25:45;;;;;;;114.00;28.27;;;;;;;1.37;100.00;102090.97;5132929;28;20078;-51
2021/12/19 05:28:14;;;;;;;107.25;27.73;;;;;;;1.39;100.00;102090.06;5132584;28;20067;-51
2021/12/19 05:30:42;;;;;;;138.32;30.35;;;;;;;1.40;100.00;102089.22;5131639;28;20518;-51
2021/12/19 05:33:11;;;;;;;112.70;28.38;;;;;;;1.38;100.00;102083.13;5132504;28;20067;-52
2021/12/19 05:46:53;;;;;;;105.55;28.10;;;;;;;1.39;100.00;102079.59;5108792;28;20056;-51
2021/12/19 05:49:23;;;;;;;92.90;25.40;;;;;;;1.36;100.00;102073.50;5126477;28;20071;-51
2021/12/19 05:51:51;;;;;;;119.35;28.92;;;;;;;1.38;100.00;102071.75;5131556;28;20059;-51
2021/12/19 05:54:20;;;;;;;124.70;27.98;;;;;;;1.35;100.00;102077.88;5129349;28;20402;-51
2021/12/19 05:56:48;;;;;;;114.18;27.45;;;;;;;1.34;100.00;102070.88;5118054;28;20058;-51
2021/12/19 05:59:17;;;;;;;115.05;28.15;;;;;;;1.32;100.00;102077.00;5117472;28;20157;-51
2021/12/19 06:01:46;;;;;;;174.25;33.25;;;;;;;1.37;100.00;102073.50;5118270;28;20070;-51
2021/12/19 06:04:14;;;;;;;105.22;26.45;;;;;;;1.40;100.00;102076.13;5118189;28;20062;-51
2021/12/19 06:06:46;;;;;;;160.70;30.50;;;;;;;1.38;100.00;102071.75;5117291;28;20051;-51
2021/12/19 06:09:14;;;;;;;88.03;21.27;;;;;;;1.37;100.00;102081.34;5118252;28;20083;-51
2021/12/19 06:11:42;;;;;;;146.98;31.20;;;;;;;1.46;100.00;102083.09;5118349;28;20415;-51
2021/12/19 06:14:10;;;;;;;190.68;33.20;;;;;;;1.58;100.00;102084.84;5117793;28;20063;-51
2021/12/19 06:16:39;;;;;;;181.73;35.58;;;;;;;1.64;100.00;102079.63;5117488;28;20411;-51
2021/12/19 06:19:07;;;;;;;157.25;31.33;;;;;;;1.72;100.00;102077.03;5117337;28;20423;-51
2021/12/19 06:21:35;;;;;;;165.80;33.00;;;;;;;1.71;100.00;102065.66;5117295;28;20503;-51
2021/12/19 06:24:05;;;;;;;150.55;32.17;;;;;;;1.71;100.00;102072.66;5116659;28;20056;-51
2021/12/19 06:26:35;;;;;;;188.90;31.40;;;;;;;1.74;100.00;102078.75;5117407;28;20086;-51
2021/12/19 06:29:04;;;;;;;186.23;33.17;;;;;;;1.72;100.00;102072.66;5116966;28;20062;-51
2021/12/19 06:31:32;;;;;;;137.52;28.83;;;;;;;1.71;100.00;102076.13;5117054;28;20066;-51
2021/12/19 06:34:00;;;;;;;185.40;33.80;;;;;;;1.70;100.00;102074.41;5116510;28;20051;-51
2021/12/19 06:36:29;;;;;;;160.05;34.55;;;;;;;1.67;100.00;102079.63;5116772;28;20055;-51
2021/12/19 06:38:58;;;;;;;215.65;35.35;;;;;;;1.72;100.00;102077.88;5117515;28;20058;-51
2021/12/19 06:41:27;;;;;;;167.20;32.30;;;;;;;1.74;100.00;102076.13;5117121;28;20062;-51
2021/12/19 06:43:56;;;;;;;164.98;30.77;;;;;;;1.76;100.00;102084.84;5116491;28;20056;-51
2021/12/19 06:46:25;;;;;;;168.55;31.67;;;;;;;1.79;100.00;102084.84;5117672;28;20056;-51
2021/12/19 06:48:53;;;;;;;182.52;31.85;;;;;;;1.79;100.00;102078.75;5116740;28;20060;-51
2021/12/19 06:51:21;;;;;;;170.85;32.47;;;;;;;1.83;100.00;102078.78;5116999;28;20054;-51
2021/12/19 06:53:50;;;;;;;131.70;28.02;;;;;;;1.93;100.00;102076.13;5116133;28;20055;-51
2021/12/19 06:56:18;;;;;;;117.88;26.88;;;;;;;1.93;100.00;102073.50;5116662;28;20055;-51
2021/12/19 06:58:48;;;;;;;113.53;27.67;;;;;;;1.93;100.00;102079.59;5116724;28;20060;-51
2021/12/19 07:01:16;;;;;;;138.27;29.63;;;;;;;1.97;100.00;102077.88;5116516;28;20055;-51
2021/12/19 07:03:44;;;;;;;141.57;29.77;;;;;;;2.00;100.00;102077.84;5115871;28;20510;-51
2021/12/19 07:06:18;;;;;;;121.25;26.13;;;;;;;2.04;100.00;102075.22;5116212;28;20100;-51
2021/12/19 07:08:46;;;;;;;148.23;28.65;;;;;;;2.10;100.00;102079.59;5116020;28;20506;-51
2021/12/19 07:11:14;;;;;;;200.50;35.85;;;;;;;2.10;100.00;102078.72;5116049;28;20052;-51
2021/12/19 07:13:42;;;;;;;142.32;29.80;;;;;;;2.15;100.00;102084.81;5116932;28;20058;-51
2021/12/19 07:16:12;;;;;;;159.82;31.65;;;;;;;2.23;100.00;102078.69;5116247;28;20062;-51
2021/12/19 07:18:42;;;;;;;229.95;36.50;;;;;;;2.29;100.00;102085.66;5116414;28;20056;-51
2021/12/19 07:21:11;;;;;;;214.20;35.67;;;;;;;2.35;100.00;102087.38;5116767;28;20051;-51
2021/12/19 07:23:39;;;;;;;239.10;35.33;;;;;;;2.41;100.00;102090.00;5116198;28;20060;-51
2021/12/19 07:26:07;;;;;;;224.93;34.35;;;;;;;2.45;100.00;102096.09;5116072;28;20083;-51
2021/12/19 07:28:35;;;;;;;224.05;35.85;;;;;;;2.41;100.00;102098.72;5115718;28;20142;-51
2021/12/19 07:31:03;;;;;;;233.50;36.22;;;;;;;2.39;100.00;102103.09;5116212;28;20071;-51
2021/12/19 07:33:33;;;;;;;198.23;35.10;;;;;;;2.34;100.00;102104.00;5115656;28;20055;-51
2021/12/19 07:36:02;;;;;;;187.25;33.10;;;;;;;2.33;100.00;102102.25;5115273;28;20058;-51
2021/12/19 07:38:34;;;;;;;227.93;33.40;;;;;;;2.35;100.00;102101.34;5115785;28;20055;-51
2021/12/19 07:41:03;;;;;;;180.15;30.17;;;;;;;2.36;100.00;102105.72;5115231;28;20526;-51
2021/12/19 07:43:31;;;;;;;225.65;37.28;;;;;;;2.39;100.00;102108.34;5115946;28;20059;-51
2021/12/19 07:45:59;;;;;;;206.93;33.55;;;;;;;2.50;100.00;102100.44;5115294;28;20055;-51
2021/12/19 07:48:28;;;;;;;235.80;36.42;;;;;;;2.60;100.00;102099.53;5115607;28;20066;-51
2021/12/19 07:50:57;;;;;;;225.45;36.60;;;;;;;2.65;100.00;102093.41;5115568;28;20066;-51
2021/12/19 07:53:25;;;;;;;191.02;35.55;;;;;;;2.74;100.00;102098.59;5116130;28;20506;-52
2021/12/19 07:55:54;;;;;;;235.32;37.58;;;;;;;2.82;100.00;102107.31;5115442;28;20062;-52
2021/12/19 07:58:22;;;;;;;181.93;35.72;;;;;;;2.89;100.00;102109.03;5115452;28;20060;-52
2021/12/19 08:00:50;;;;;;;214.20;36.13;;;;;;;2.82;100.00;102102.06;5115053;28;20066;-51
2021/12/19 08:03:18;;;;;;;188.45;35.22;;;;;;;2.76;100.00;102096.88;5115373;28;20180;-51
2021/12/19 08:05:48;;;;;;;184.50;32.72;;;;;;;2.68;100.00;102098.66;5114793;28;20059;-51
2021/12/19 08:08:25;;;;;;;187.70;33.20;;;;;;;2.55;100.00;102093.44;5115265;28;20051;-49
2021/12/19 08:13:39;;;;;;;195.32;34.10;;;;;;;2.30;100.00;102102.25;5115507;28;20066;-49
2021/12/19 08:16:07;;;;;;;155.18;32.60;;;;;;;2.20;100.00;102097.03;5114859;28;20056;-49
2021/12/19 08:18:36;;;;;;;189.80;34.03;;;;;;;2.23;100.00;102097.00;5114524;28;20537;-49
2021/12/19 08:21:04;;;;;;;166.75;29.67;;;;;;;2.18;100.00;102097.91;5114762;28;20055;-49
2021/12/19 08:23:35;;;;;;;172.65;32.15;;;;;;;2.15;100.00;102090.94;5114529;28;20054;-49
2021/12/19 08:26:03;;;;;;;153.55;31.75;;;;;;;2.19;100.00;102095.28;5115538;28;20087;-49
2021/12/19 08:28:31;;;;;;;171.93;31.73;;;;;;;2.23;100.00;102093.53;5114919;28;20051;-49
2021/12/19 08:31:00;;;;;;;147.05;31.35;;;;;;;2.32;100.00;102096.13;5115468;28;20052;-49
2021/12/19 08:33:28;;;;;;;157.00;33.08;;;;;;;2.42;100.00;102099.56;5115415;28;20063;-49
2021/12/19 08:35:57;;;;;;;167.00;32.60;;;;;;;2.46;100.00;102093.47;5114595;28;20063;-49
2021/12/19 08:38:25;;;;;;;182.75;33.03;;;;;;;2.52;100.00;102098.69;5115157;28;20066;-49
2021/12/19 08:40:55;;;;;;;160.00;31.75;;;;;;;2.49;100.00;102093.47;5114531;28;20065;-49
2021/12/19 08:43:23;;;;;;;158.20;31.77;;;;;;;2.57;100.00;102091.69;5114784;28;20067;-49
2021/12/19 08:45:52;;;;;;;165.38;32.28;;;;;;;2.54;100.00;102096.94;5114455;28;20066;-52
2021/12/19 08:48:20;;;;;;;152.00;30.45;;;;;;;2.47;100.00;102095.22;5114764;28;20055;-51
2021/12/19 08:50:49;;;;;;;172.15;33.10;;;;;;;2.41;100.00;102096.09;5115417;28;20062;-52
2021/12/19 08:53:17;;;;;;;197.63;31.98;;;;;;;2.42;100.00;102095.22;5115105;28;20051;-49
2021/12/19 08:55:46;;;;;;;190.13;34.17;;;;;;;2.37;100.00;102103.97;5114785;28;20087;-49
2021/12/19 08:58:15;;;;;;;180.50;32.55;;;;;;;2.32;100.00;102101.38;5114352;28;20056;-49
2021/12/19 09:00:43;;;;;;;270.58;33.80;;;;;;;2.14;100.00;102099.66;5114535;28;20056;-49
2021/12/19 09:03:12;;;;;;;211.55;31.85;;;;;;;2.21;100.00;102109.22;5115004;28;20448;-49
2021/12/19 09:05:40;;;;;;;218.25;33.25;;;;;;;2.05;100.00;102112.75;5114813;28;20062;-50
2021/12/19 09:08:08;;;;;;;317.88;38.15;;;;;;;2.03;100.00;102117.13;5114609;28;20059;-50
2021/12/19 09:10:36;;;;;;;211.65;34.70;;;;;;;2.01;100.00;102111.00;5115389;28;20056;-49
2021/12/19 09:13:05;;;;;;;347.25;41.80;;;;;;;1.99;100.00;102111.00;5114159;28;20533;-49
2021/12/19 09:15:34;;;;;;;387.65;39.17;;;;;;;1.91;100.00;102111.91;5115063;28;20396;-50
2021/12/19 09:18:03;;;;;;;397.20;39.85;;;;;;;1.73;100.00;102116.28;5114044;28;20091;-50
2021/12/19 09:20:31;;;;;;;416.52;35.45;;;;;;;1.72;100.00;102109.28;5114428;28;20062;-50
2021/12/19 09:23:00;;;;;;;431.00;33.28;;;;;;;1.67;100.00;102108.41;5114457;28;20055;-50
2021/12/19 09:25:28;;;;;;;245.23;25.80;;;;;;;1.48;100.00;102095.31;5114452;28;20056;-50
2021/12/19 09:27:56;;;;;;;176.98;25.88;;;;;;;1.43;100.00;102107.53;5114434;28;20052;-50
2021/12/19 09:30:26;;;;;;;120.65;21.00;;;;;;;1.40;100.00;102115.38;5115824;28;20519;-50
2021/12/19 09:32:56;;;;;;;153.25;24.38;;;;;;;1.44;100.00;102117.09;5118070;28;20421;-50
2021/12/19 09:35:24;;;;;;;113.18;23.13;;;;;;;1.62;100.00;102125.84;5118008;28;20059;-49
2021/12/19 09:37:53;;;;;;;166.68;24.58;;;;;;;1.62;100.00;102112.78;5118205;28;20051;-50
2021/12/19 09:40:24;;;;;;;139.68;24.00;;;;;;;1.66;100.00;102120.63;5118169;28;20060;-50
2021/12/19 09:43:00;;;;;;;160.60;23.52;;;;;;;1.69;100.00;102119.75;5118146;28;20062;-50
2021/12/19 09:45:30;;;;;;;142.82;22.90;;;;;;;1.69;100.00;102114.50;5118329;28;20066;-50
2021/12/19 09:48:00;;;;;;;127.10;21.42;;;;;;;1.79;100.00;102121.50;5118288;28;20055;-50
2021/12/19 09:50:29;;;;;;;132.57;22.42;;;;;;;1.90;100.00;102126.75;5118225;28;20087;-50
2021/12/19 09:52:57;;;;;;;161.65;24.10;;;;;;;1.73;100.00;102126.75;5118713;28;20058;-50
2021/12/19 09:55:29;;;;;;;;;;;;;;;1.83;100.00;102125.88;5117755;28;20059;-49
2021/12/19 09:57:59;;;;;;;112.78;21.88;;;;;;;1.73;100.00;102126.75;5117492;28;19934;-52
2021/12/19 10:00:28;;;;;;;144.02;22.35;;;;;;;1.75;100.00;102118.88;5117366;28;20529;-52
2021/12/19 10:02:57;;;;;;;86.38;20.52;;;;;;;1.92;100.00;102118.91;5117378;28;20090;-52
2021/12/19 10:05:27;;;;;;;115.82;19.58;;;;;;;1.90;100.00;102118.00;5117674;28;20068;-50
2021/12/19 10:07:57;;;;;;;99.68;19.42;;;;;;;1.95;100.00;102121.47;5117886;28;20051;-50
2021/12/19 10:10:42;;;;;;;134.65;20.58;;;;;;;1.94;100.00;102119.75;5117215;28;20051;-52
2021/12/19 10:13:10;;;;;;;107.65;21.63;;;;;;;2.10;100.00;102125.84;5117166;28;20056;-50
2021/12/19 10:15:41;;;;;;;98.35;20.35;;;;;;;2.30;100.00;102112.72;5118205;28;20059;-50
2021/12/19 10:18:10;;;;;;;179.77;22.55;;;;;;;2.39;100.00;102115.31;5117634;28;20055;-50
2021/12/19 10:20:46;;;;;;;98.72;19.45;;;;;;;2.56;100.00;102116.13;5117619;28;20062;-50
2021/12/19 10:23:17;;;;;;;82.32;20.08;;;;;;;2.50;100.00;102110.91;5116727;28;20143;-50
2021/12/19 10:25:47;;;;;;;73.60;17.80;;;;;;;2.50;100.00;102110.03;5117999;28;20060;-49
2021/12/19 10:28:15;;;;;;;148.40;22.50;;;;;;;2.35;100.00;102111.81;5116495;28;20062;-50
2021/12/19 10:30:46;;;;;;;150.55;20.70;;;;;;;2.35;100.00;102108.34;5117169;28;20051;-50
2021/12/19 10:33:16;;;;;;;187.40;22.13;;;;;;;2.42;100.00;102099.56;5117518;28;20098;-50
2021/12/19 10:35:47;;;;;;;107.97;20.75;;;;;;;2.43;100.00;102103.94;5117290;28;20285;-50
2021/12/19 10:38:17;;;;;;;79.18;19.02;;;;;;;2.57;100.00;102096.94;5116757;28;20074;-50
2021/12/19 10:40:48;;;;;;;122.70;22.60;;;;;;;2.69;100.00;102084.63;5116826;28;20067;-49
2021/12/19 10:43:18;;;;;;;115.55;21.13;;;;;;;2.79;100.00;102087.22;5117681;28;20402;-50
2021/12/19 10:45:48;;;;;;;137.80;22.52;;;;;;;2.88;100.00;102085.44;5116737;28;20056;-50
2021/12/19 10:48:22;;;;;;;136.55;24.85;;;;;;;2.89;100.00;102085.44;5117668;28;20056;-49
2021/12/19 10:50:54;;;;;;;149.98;22.48;;;;;;;2.79;100.00;102082.00;5116787;28;20062;-49
2021/12/19 10:53:29;;;;;;;97.70;22.35;;;;;;;2.91;100.00;102085.44;5117089;28;20055;-49
2021/12/19 10:55:58;;;;;;;117.15;19.40;;;;;;;2.87;100.00;102083.69;5117186;28;20059;-49
2021/12/19 10:58:30;;;;;;;175.63;22.63;;;;;;;2.85;100.00;102075.84;5116343;28;20052;-49
2021/12/19 11:01:07;;;;;;;161.25;21.98;;;;;;;2.85;100.00;102070.59;5116145;28;20058;-49
2021/12/19 11:03:38;;;;;;;167.27;23.88;;;;;;;2.81;100.00;102065.38;5116247;28;20549;-49
2021/12/19 11:06:27;;;;;;;91.67;16.27;;;;;;;2.93;100.00;102070.56;5117912;28;20062;-49
2021/12/19 11:08:58;;;;;;;129.73;21.00;;;;;;;2.89;100.00;102061.84;5116170;28;20060;-49
2021/12/19 11:11:32;;;;;;;236.13;24.67;;;;;;;2.96;100.00;102053.06;5115829;28;20430;-49
2021/12/19 11:14:02;;;;;;;213.32;25.27;;;;;;;3.09;100.00;102052.97;5116687;28;20105;-49
2021/12/19 11:16:30;;;;;;;104.90;20.40;;;;;;;3.14;100.00;102040.72;5116281;28;20056;-49
2021/12/19 11:18:58;;;;;;;87.22;18.65;;;;;;;3.07;100.00;102033.78;5115922;28;20052;-49
2021/12/19 11:21:33;;;;;;;86.13;20.58;;;;;;;3.17;100.00;102030.22;5115851;28;20097;-49
2021/12/19 11:24:04;;;;;;;125.35;18.15;;;;;;;3.18;100.00;102031.97;5116368;28;20059;-52
2021/12/19 11:26:32;;;;;;;127.75;19.20;;;;;;;3.24;100.00;102021.41;5116924;28;20059;-49
2021/12/19 11:29:01;;;;;;;95.90;18.83;;;;;;;3.26;100.00;102014.41;5115916;28;20536;-49
2021/12/19 11:31:31;;;;;;;76.00;14.95;;;;;;;3.25;100.00;102022.31;5115660;28;20090;-52
2021/12/19 11:34:08;;;;;;;67.57;16.33;;;;;;;3.33;100.00;102020.50;5116566;28;20075;-52
2021/12/19 11:36:41;;;;;;;111.55;17.70;;;;;;;3.30;100.00;102021.38;5115897;28;20066;-49
2021/12/19 11:39:10;;;;;;;70.80;18.10;;;;;;;3.47;100.00;102020.38;5116365;28;20055;-49
2021/12/19 11:41:39;;;;;;;138.35;20.23;;;;;;;3.47;100.00;102000.25;5115971;28;20066;-49
2021/12/19 11:44:09;;;;;;;85.15;21.48;;;;;;;3.48;100.00;101998.47;5116459;28;20056;-49
2021/12/19 11:46:45;;;;;;;125.55;24.58;;;;;;;3.59;100.00;101998.41;5116470;28;20055;-49
2021/12/19 11:49:19;;;;;;;89.18;20.67;;;;;;;3.70;100.00;101994.78;5115087;28;20059;-49
2021/12/19 11:51:49;;;;;;;64.65;18.40;;;;;;;3.63;100.00;101990.50;5115034;28;20089;-50
2021/12/19 11:54:19;;;;;;;114.10;18.58;;;;;;;3.69;100.00;101989.56;5114531;28;20530;-50
2021/12/19 11:57:09;;;;;;;110.70;19.38;;;;;;;3.69;100.00;101987.78;5115541;28;20062;-54
2021/12/19 11:59:39;;;;;;;145.25;21.05;;;;;;;3.57;100.00;101985.28;5115123;28;20419;-50
2021/12/19 12:02:25;;;;;;;64.18;16.63;;;;;;;3.80;100.00;101985.06;5114791;28;20051;-50
2021/12/19 12:05:22;;;;;;;90.43;19.25;;;;;;;3.91;100.00;101983.19;5115976;28;20105;-49
2021/12/19 12:08:14;;;;;;;93.43;17.05;;;;;;;3.96;100.00;101977.03;5114591;28;20546;-49
2021/12/19 12:11:12;;;;;;;66.20;19.13;;;;;;;3.99;100.00;101977.84;5115866;28;20062;-49
2021/12/19 12:13:42;;;;;;;61.25;17.77;;;;;;;4.02;100.00;101969.94;5115833;28;20060;-49
2021/12/19 12:16:39;;;;;;;59.67;19.17;;;;;;;4.11;100.00;101963.72;5114679;28;20507;-49
2021/12/19 12:19:07;;;;;;;80.28;18.35;;;;;;;4.15;100.00;101954.03;5115449;28;20055;-52
2021/12/19 12:21:42;;;;;;;110.25;21.05;;;;;;;4.08;100.00;101962.00;5114778;28;20060;-49
2021/12/19 12:24:18;;;;;;;179.73;20.38;;;;;;;3.91;100.00;101951.66;5114485;28;20056;-51